sensor_id;sensor_type;location;lat;lon;timestamp;P1;durP1;ratioP1;P2;durP2;ratioP2
7263;SDS011;3673;52.480;13.348;2023-02-03T00:01:57;7.57;;;3.17;;
7263;SDS011;3673;52.480;13.348;2023-02-03T00:04:24;5.45;;;2.80;;
7263;SDS011;3673;52.480;13.348;2023-02-03T00:06:50;11.68;;;3.33;;
7263;SDS011;3673;52.480;13.348;2023-02-03T00:09:17;12.25;;;3.40;;
7263;SDS011;3673;52.480;13.348;2023-02-03T00:11:46;14.73;;;4.00;;
7263;SDS011;3673;52.480;13.348;2023-02-03T00:14:13;9.85;;;3.13;;
7263;SDS011;3673;52.480;13.348;2023-02-03T00:16:39;8.48;;;3.20;;
7263;SDS011;3673;52.480;13.348;2023-02-03T00:19:06;10.90;;;3.38;;
7263;SDS011;3673;52.480;13.348;2023-02-03T00:21:33;7.55;;;2.88;;
7263;SDS011;3673;52.480;13.348;2023-02-03T00:24:00;10.68;;;3.30;;
7263;SDS011;3673;52.480;13.348;2023-02-03T00:26:26;16.77;;;3.28;;
7263;SDS011;3673;52.480;13.348;2023-02-03T00:28:54;11.23;;;3.05;;
7263;SDS011;3673;52.480;13.348;2023-02-03T00:31:24;5.93;;;2.47;;
7263;SDS011;3673;52.480;13.348;2023-02-03T00:33:54;7.03;;;3.65;;
7263;SDS011;3673;52.480;13.348;2023-02-03T00:36:22;12.48;;;4.05;;
7263;SDS011;3673;52.480;13.348;2023-02-03T00:38:50;12.38;;;2.95;;
7263;SDS011;3673;52.480;13.348;2023-02-03T00:41:17;13.73;;;3.75;;
7263;SDS011;3673;52.480;13.348;2023-02-03T00:43:45;16.05;;;3.65;;
7263;SDS011;3673;52.480;13.348;2023-02-03T00:46:14;12.52;;;3.38;;
7263;SDS011;3673;52.480;13.348;2023-02-03T00:48:41;13.27;;;3.15;;
7263;SDS011;3673;52.480;13.348;2023-02-03T00:51:08;10.45;;;3.25;;
7263;SDS011;3673;52.480;13.348;2023-02-03T00:53:34;25.67;;;5.13;;
7263;SDS011;3673;52.480;13.348;2023-02-03T00:56:01;12.13;;;3.53;;
7263;SDS011;3673;52.480;13.348;2023-02-03T00:58:28;15.77;;;4.75;;
7263;SDS011;3673;52.480;13.348;2023-02-03T01:00:54;15.52;;;4.15;;
7263;SDS011;3673;52.480;13.348;2023-02-03T01:03:23;9.50;;;3.22;;
7263;SDS011;3673;52.480;13.348;2023-02-03T01:05:49;14.50;;;3.70;;
7263;SDS011;3673;52.480;13.348;2023-02-03T01:08:16;13.15;;;3.53;;
7263;SDS011;3673;52.480;13.348;2023-02-03T01:10:43;11.05;;;3.45;;
7263;SDS011;3673;52.480;13.348;2023-02-03T01:13:10;10.98;;;4.28;;
7263;SDS011;3673;52.480;13.348;2023-02-03T01:15:36;12.68;;;3.53;;
7263;SDS011;3673;52.480;13.348;2023-02-03T01:18:03;8.73;;;4.38;;
7263;SDS011;3673;52.480;13.348;2023-02-03T01:20:31;20.33;;;4.15;;
7263;SDS011;3673;52.480;13.348;2023-02-03T01:22:58;11.40;;;4.88;;
7263;SDS011;3673;52.480;13.348;2023-02-03T01:25:25;21.55;;;6.05;;
7263;SDS011;3673;52.480;13.348;2023-02-03T01:27:51;19.55;;;5.22;;
7263;SDS011;3673;52.480;13.348;2023-02-03T01:30:18;18.45;;;5.28;;
7263;SDS011;3673;52.480;13.348;2023-02-03T01:32:45;14.60;;;5.60;;
7263;SDS011;3673;52.480;13.348;2023-02-03T01:35:11;8.82;;;4.63;;
7263;SDS011;3673;52.480;13.348;2023-02-03T01:37:40;12.55;;;5.63;;
7263;SDS011;3673;52.480;13.348;2023-02-03T01:40:07;14.82;;;5.30;;
7263;SDS011;3673;52.480;13.348;2023-02-03T01:42:35;12.43;;;5.25;;
7263;SDS011;3673;52.480;13.348;2023-02-03T01:45:02;12.45;;;5.90;;
7263;SDS011;3673;52.480;13.348;2023-02-03T01:47:30;12.70;;;6.30;;
7263;SDS011;3673;52.480;13.348;2023-02-03T01:50:03;11.57;;;5.60;;
7263;SDS011;3673;52.480;13.348;2023-02-03T01:52:36;15.40;;;5.53;;
7263;SDS011;3673;52.480;13.348;2023-02-03T01:55:07;13.48;;;5.75;;
7263;SDS011;3673;52.480;13.348;2023-02-03T01:57:38;15.30;;;6.45;;
7263;SDS011;3673;52.480;13.348;2023-02-03T02:00:11;12.85;;;5.65;;
7263;SDS011;3673;52.480;13.348;2023-02-03T02:02:38;11.18;;;5.38;;
7263;SDS011;3673;52.480;13.348;2023-02-03T02:05:09;8.55;;;4.95;;
7263;SDS011;3673;52.480;13.348;2023-02-03T02:07:42;12.43;;;5.80;;
7263;SDS011;3673;52.480;13.348;2023-02-03T02:10:10;9.88;;;4.78;;
7263;SDS011;3673;52.480;13.348;2023-02-03T02:12:37;10.27;;;5.25;;
7263;SDS011;3673;52.480;13.348;2023-02-03T02:15:04;9.70;;;5.10;;
7263;SDS011;3673;52.480;13.348;2023-02-03T02:17:38;10.80;;;4.63;;
7263;SDS011;3673;52.480;13.348;2023-02-03T02:20:41;12.52;;;4.80;;
7263;SDS011;3673;52.480;13.348;2023-02-03T02:23:43;9.00;;;5.32;;
7263;SDS011;3673;52.480;13.348;2023-02-03T02:26:56;7.95;;;4.40;;
7263;SDS011;3673;52.480;13.348;2023-02-03T02:29:47;7.05;;;5.18;;
7263;SDS011;3673;52.480;13.348;2023-02-03T02:32:55;5.90;;;4.55;;
7263;SDS011;3673;52.480;13.348;2023-02-03T02:35:38;11.18;;;4.97;;
7263;SDS011;3673;52.480;13.348;2023-02-03T02:38:18;7.85;;;4.60;;
7263;SDS011;3673;52.480;13.348;2023-02-03T02:41:00;11.52;;;4.97;;
7263;SDS011;3673;52.480;13.348;2023-02-03T02:43:33;6.88;;;4.53;;
7263;SDS011;3673;52.480;13.348;2023-02-03T02:46:08;8.13;;;4.25;;
7263;SDS011;3673;52.480;13.348;2023-02-03T02:48:42;8.68;;;4.60;;
7263;SDS011;3673;52.480;13.348;2023-02-03T02:51:14;6.00;;;4.25;;
7263;SDS011;3673;52.480;13.348;2023-02-03T02:53:43;7.63;;;4.25;;
7263;SDS011;3673;52.480;13.348;2023-02-03T02:56:14;6.85;;;4.03;;
7263;SDS011;3673;52.480;13.348;2023-02-03T02:58:43;6.63;;;3.88;;
7263;SDS011;3673;52.480;13.348;2023-02-03T03:01:14;5.18;;;3.40;;
7263;SDS011;3673;52.480;13.348;2023-02-03T03:03:43;5.40;;;3.88;;
7263;SDS011;3673;52.480;13.348;2023-02-03T03:06:11;5.00;;;3.42;;
7263;SDS011;3673;52.480;13.348;2023-02-03T03:08:46;4.25;;;3.42;;
7263;SDS011;3673;52.480;13.348;2023-02-03T03:11:19;3.45;;;2.92;;
7263;SDS011;3673;52.480;13.348;2023-02-03T03:13:47;7.80;;;3.13;;
7263;SDS011;3673;52.480;13.348;2023-02-03T03:16:19;6.32;;;3.10;;
7263;SDS011;3673;52.480;13.348;2023-02-03T03:18:52;3.10;;;2.78;;
7263;SDS011;3673;52.480;13.348;2023-02-03T03:21:24;5.95;;;3.35;;
7263;SDS011;3673;52.480;13.348;2023-02-03T03:23:56;3.03;;;2.72;;
7263;SDS011;3673;52.480;13.348;2023-02-03T03:26:27;4.60;;;3.17;;
7263;SDS011;3673;52.480;13.348;2023-02-03T03:29:02;5.50;;;3.58;;
7263;SDS011;3673;52.480;13.348;2023-02-03T03:31:36;5.03;;;2.90;;
7263;SDS011;3673;52.480;13.348;2023-02-03T03:34:06;4.55;;;2.88;;
7263;SDS011;3673;52.480;13.348;2023-02-03T03:36:37;5.22;;;3.13;;
7263;SDS011;3673;52.480;13.348;2023-02-03T03:39:11;3.65;;;3.00;;
7263;SDS011;3673;52.480;13.348;2023-02-03T03:41:47;4.35;;;3.25;;
7263;SDS011;3673;52.480;13.348;2023-02-03T03:44:24;3.33;;;3.03;;
7263;SDS011;3673;52.480;13.348;2023-02-03T03:46:55;5.95;;;3.35;;
7263;SDS011;3673;52.480;13.348;2023-02-03T03:49:33;8.10;;;4.53;;
7263;SDS011;3673;52.480;13.348;2023-02-03T03:52:04;8.35;;;4.35;;
7263;SDS011;3673;52.480;13.348;2023-02-03T03:54:34;4.03;;;3.28;;
7263;SDS011;3673;52.480;13.348;2023-02-03T03:57:04;4.65;;;2.83;;
7263;SDS011;3673;52.480;13.348;2023-02-03T03:59:39;3.15;;;2.60;;
7263;SDS011;3673;52.480;13.348;2023-02-03T04:02:10;7.35;;;2.95;;
7263;SDS011;3673;52.480;13.348;2023-02-03T04:04:40;3.17;;;2.33;;
7263;SDS011;3673;52.480;13.348;2023-02-03T04:07:08;4.82;;;2.97;;
7263;SDS011;3673;52.480;13.348;2023-02-03T04:09:37;3.90;;;2.80;;
7263;SDS011;3673;52.480;13.348;2023-02-03T04:12:08;2.78;;;2.55;;
7263;SDS011;3673;52.480;13.348;2023-02-03T04:14:44;5.15;;;3.10;;
7263;SDS011;3673;52.480;13.348;2023-02-03T04:17:11;4.03;;;3.17;;
7263;SDS011;3673;52.480;13.348;2023-02-03T04:19:38;4.82;;;3.20;;
7263;SDS011;3673;52.480;13.348;2023-02-03T04:22:06;4.25;;;3.50;;
7263;SDS011;3673;52.480;13.348;2023-02-03T04:24:33;4.43;;;4.00;;
7263;SDS011;3673;52.480;13.348;2023-02-03T04:26:59;5.68;;;3.90;;
7263;SDS011;3673;52.480;13.348;2023-02-03T04:29:26;6.43;;;4.40;;
7263;SDS011;3673;52.480;13.348;2023-02-03T04:31:53;5.60;;;4.75;;
7263;SDS011;3673;52.480;13.348;2023-02-03T04:34:19;5.75;;;5.07;;
7263;SDS011;3673;52.480;13.348;2023-02-03T04:36:46;8.27;;;5.80;;
7263;SDS011;3673;52.480;13.348;2023-02-03T04:39:14;5.53;;;5.00;;
7263;SDS011;3673;52.480;13.348;2023-02-03T04:41:41;6.82;;;5.53;;
7263;SDS011;3673;52.480;13.348;2023-02-03T04:44:08;7.68;;;5.53;;
7263;SDS011;3673;52.480;13.348;2023-02-03T04:46:34;7.50;;;6.05;;
7263;SDS011;3673;52.480;13.348;2023-02-03T04:49:01;10.85;;;6.97;;
7263;SDS011;3673;52.480;13.348;2023-02-03T04:51:28;12.95;;;7.45;;
7263;SDS011;3673;52.480;13.348;2023-02-03T04:53:54;8.45;;;6.90;;
7263;SDS011;3673;52.480;13.348;2023-02-03T04:56:22;9.57;;;7.80;;
7263;SDS011;3673;52.480;13.348;2023-02-03T04:58:49;12.82;;;8.68;;
7263;SDS011;3673;52.480;13.348;2023-02-03T05:01:16;12.10;;;9.10;;
7263;SDS011;3673;52.480;13.348;2023-02-03T05:03:43;13.70;;;9.43;;
7263;SDS011;3673;52.480;13.348;2023-02-03T05:06:09;13.45;;;10.80;;
7263;SDS011;3673;52.480;13.348;2023-02-03T05:08:36;14.50;;;10.80;;
7263;SDS011;3673;52.480;13.348;2023-02-03T05:11:03;18.00;;;11.20;;
7263;SDS011;3673;52.480;13.348;2023-02-03T05:13:31;18.05;;;11.88;;
7263;SDS011;3673;52.480;13.348;2023-02-03T05:15:58;18.45;;;12.45;;
7263;SDS011;3673;52.480;13.348;2023-02-03T05:18:24;20.70;;;13.18;;
7263;SDS011;3673;52.480;13.348;2023-02-03T05:20:51;17.42;;;13.07;;
7263;SDS011;3673;52.480;13.348;2023-02-03T05:23:18;20.08;;;12.75;;
7263;SDS011;3673;52.480;13.348;2023-02-03T05:25:44;26.42;;;13.82;;
7263;SDS011;3673;52.480;13.348;2023-02-03T05:28:11;23.80;;;15.90;;
7263;SDS011;3673;52.480;13.348;2023-02-03T05:30:39;24.77;;;16.23;;
7263;SDS011;3673;52.480;13.348;2023-02-03T05:33:06;26.70;;;16.63;;
7263;SDS011;3673;52.480;13.348;2023-02-03T05:35:33;28.60;;;17.48;;
7263;SDS011;3673;52.480;13.348;2023-02-03T05:38:00;24.83;;;17.23;;
7263;SDS011;3673;52.480;13.348;2023-02-03T05:40:27;27.98;;;18.05;;
7263;SDS011;3673;52.480;13.348;2023-02-03T05:43:11;26.15;;;17.27;;
7263;SDS011;3673;52.480;13.348;2023-02-03T05:45:39;28.67;;;19.70;;
7263;SDS011;3673;52.480;13.348;2023-02-03T05:48:06;31.73;;;18.92;;
7263;SDS011;3673;52.480;13.348;2023-02-03T05:50:33;31.30;;;19.33;;
7263;SDS011;3673;52.480;13.348;2023-02-03T05:53:02;36.13;;;19.65;;
7263;SDS011;3673;52.480;13.348;2023-02-03T05:55:31;29.52;;;19.63;;
7263;SDS011;3673;52.480;13.348;2023-02-03T05:57:58;30.23;;;17.52;;
7263;SDS011;3673;52.480;13.348;2023-02-03T06:00:26;29.85;;;19.17;;
7263;SDS011;3673;52.480;13.348;2023-02-03T06:02:56;29.15;;;18.63;;
7263;SDS011;3673;52.480;13.348;2023-02-03T06:05:24;32.47;;;19.48;;
7263;SDS011;3673;52.480;13.348;2023-02-03T06:07:51;31.20;;;19.10;;
7263;SDS011;3673;52.480;13.348;2023-02-03T06:10:18;29.52;;;19.50;;
7263;SDS011;3673;52.480;13.348;2023-02-03T06:12:46;29.70;;;19.20;;
7263;SDS011;3673;52.480;13.348;2023-02-03T06:15:13;28.33;;;18.85;;
7263;SDS011;3673;52.480;13.348;2023-02-03T06:17:42;35.55;;;20.40;;
7263;SDS011;3673;52.480;13.348;2023-02-03T06:20:12;33.25;;;19.95;;
7263;SDS011;3673;52.480;13.348;2023-02-03T06:22:41;34.35;;;19.13;;
7263;SDS011;3673;52.480;13.348;2023-02-03T06:25:08;30.15;;;18.80;;
7263;SDS011;3673;52.480;13.348;2023-02-03T06:27:36;31.50;;;20.65;;
7263;SDS011;3673;52.480;13.348;2023-02-03T06:30:03;27.75;;;18.63;;
7263;SDS011;3673;52.480;13.348;2023-02-03T06:32:31;31.08;;;19.13;;
7263;SDS011;3673;52.480;13.348;2023-02-03T06:34:58;31.92;;;19.30;;
7263;SDS011;3673;52.480;13.348;2023-02-03T06:37:26;32.97;;;19.90;;
7263;SDS011;3673;52.480;13.348;2023-02-03T06:39:53;30.58;;;20.95;;
7263;SDS011;3673;52.480;13.348;2023-02-03T06:42:19;30.77;;;18.42;;
7263;SDS011;3673;52.480;13.348;2023-02-03T06:44:46;27.35;;;18.90;;
7263;SDS011;3673;52.480;13.348;2023-02-03T06:47:13;27.33;;;17.83;;
7263;SDS011;3673;52.480;13.348;2023-02-03T06:49:40;23.55;;;17.88;;
7263;SDS011;3673;52.480;13.348;2023-02-03T06:52:06;29.48;;;18.13;;
7263;SDS011;3673;52.480;13.348;2023-02-03T06:54:34;28.25;;;17.75;;
7263;SDS011;3673;52.480;13.348;2023-02-03T06:57:01;26.65;;;18.42;;
7263;SDS011;3673;52.480;13.348;2023-02-03T06:59:28;27.85;;;18.05;;
7263;SDS011;3673;52.480;13.348;2023-02-03T07:01:55;25.40;;;17.90;;
7263;SDS011;3673;52.480;13.348;2023-02-03T07:04:22;31.88;;;19.42;;
7263;SDS011;3673;52.480;13.348;2023-02-03T07:06:48;32.05;;;18.83;;
7263;SDS011;3673;52.480;13.348;2023-02-03T07:09:15;28.23;;;17.15;;
7263;SDS011;3673;52.480;13.348;2023-02-03T07:11:43;23.95;;;16.42;;
7263;SDS011;3673;52.480;13.348;2023-02-03T07:14:10;26.92;;;17.08;;
7263;SDS011;3673;52.480;13.348;2023-02-03T07:16:37;24.13;;;17.60;;
7263;SDS011;3673;52.480;13.348;2023-02-03T07:19:04;26.23;;;18.63;;
7263;SDS011;3673;52.480;13.348;2023-02-03T07:21:31;23.90;;;17.60;;
7263;SDS011;3673;52.480;13.348;2023-02-03T07:23:58;24.48;;;17.15;;
7263;SDS011;3673;52.480;13.348;2023-02-03T07:26:26;26.48;;;17.15;;
7263;SDS011;3673;52.480;13.348;2023-02-03T07:28:54;25.38;;;17.17;;
7263;SDS011;3673;52.480;13.348;2023-02-03T07:31:23;22.15;;;16.50;;
7263;SDS011;3673;52.480;13.348;2023-02-03T07:33:50;25.42;;;17.70;;
7263;SDS011;3673;52.480;13.348;2023-02-03T07:36:17;27.42;;;15.73;;
7263;SDS011;3673;52.480;13.348;2023-02-03T07:38:44;22.80;;;14.98;;
7263;SDS011;3673;52.480;13.348;2023-02-03T07:41:10;21.33;;;14.98;;
7263;SDS011;3673;52.480;13.348;2023-02-03T07:43:37;21.92;;;14.82;;
7263;SDS011;3673;52.480;13.348;2023-02-03T07:46:05;20.52;;;15.30;;
7263;SDS011;3673;52.480;13.348;2023-02-03T07:48:32;23.58;;;15.43;;
7263;SDS011;3673;52.480;13.348;2023-02-03T07:50:59;19.42;;;13.90;;
7263;SDS011;3673;52.480;13.348;2023-02-03T07:53:25;20.10;;;14.88;;
7263;SDS011;3673;52.480;13.348;2023-02-03T07:55:52;15.75;;;12.07;;
7263;SDS011;3673;52.480;13.348;2023-02-03T07:58:19;18.60;;;13.10;;
7263;SDS011;3673;52.480;13.348;2023-02-03T08:00:46;15.80;;;11.75;;
7263;SDS011;3673;52.480;13.348;2023-02-03T08:03:14;16.65;;;12.45;;
7263;SDS011;3673;52.480;13.348;2023-02-03T08:05:40;14.23;;;12.05;;
7263;SDS011;3673;52.480;13.348;2023-02-03T08:08:07;18.63;;;12.95;;
7263;SDS011;3673;52.480;13.348;2023-02-03T08:10:34;23.02;;;12.80;;
7263;SDS011;3673;52.480;13.348;2023-02-03T08:13:01;16.38;;;12.65;;
7263;SDS011;3673;52.480;13.348;2023-02-03T08:15:27;19.20;;;12.65;;
7263;SDS011;3673;52.480;13.348;2023-02-03T08:17:54;16.17;;;11.07;;
7263;SDS011;3673;52.480;13.348;2023-02-03T08:20:22;20.02;;;12.95;;
7263;SDS011;3673;52.480;13.348;2023-02-03T08:22:49;17.70;;;11.60;;
7263;SDS011;3673;52.480;13.348;2023-02-03T08:25:17;19.90;;;11.90;;
7263;SDS011;3673;52.480;13.348;2023-02-03T08:27:44;16.90;;;10.00;;
7263;SDS011;3673;52.480;13.348;2023-02-03T08:30:11;13.10;;;10.27;;
7263;SDS011;3673;52.480;13.348;2023-02-03T08:32:39;13.35;;;11.07;;
7263;SDS011;3673;52.480;13.348;2023-02-03T08:35:06;16.17;;;10.95;;
7263;SDS011;3673;52.480;13.348;2023-02-03T08:37:35;16.83;;;10.23;;
7263;SDS011;3673;52.480;13.348;2023-02-03T08:40:02;13.13;;;9.63;;
7263;SDS011;3673;52.480;13.348;2023-02-03T08:42:29;13.50;;;9.23;;
7263;SDS011;3673;52.480;13.348;2023-02-03T08:44:56;12.38;;;9.82;;
7263;SDS011;3673;52.480;13.348;2023-02-03T08:47:23;14.80;;;9.57;;
7263;SDS011;3673;52.480;13.348;2023-02-03T08:49:50;14.93;;;8.95;;
7263;SDS011;3673;52.480;13.348;2023-02-03T08:52:17;12.57;;;8.98;;
7263;SDS011;3673;52.480;13.348;2023-02-03T08:54:45;13.85;;;9.43;;
7263;SDS011;3673;52.480;13.348;2023-02-03T08:57:13;13.00;;;8.98;;
7263;SDS011;3673;52.480;13.348;2023-02-03T08:59:40;9.88;;;8.25;;
7263;SDS011;3673;52.480;13.348;2023-02-03T09:02:10;12.45;;;8.07;;
7263;SDS011;3673;52.480;13.348;2023-02-03T09:04:41;13.82;;;8.75;;
7263;SDS011;3673;52.480;13.348;2023-02-03T09:07:08;10.65;;;8.60;;
7263;SDS011;3673;52.480;13.348;2023-02-03T09:09:35;10.02;;;7.45;;
7263;SDS011;3673;52.480;13.348;2023-02-03T09:12:03;9.27;;;6.30;;
7263;SDS011;3673;52.480;13.348;2023-02-03T09:14:31;8.98;;;7.97;;
7263;SDS011;3673;52.480;13.348;2023-02-03T09:16:58;12.70;;;8.68;;
7263;SDS011;3673;52.480;13.348;2023-02-03T09:19:26;10.23;;;8.13;;
7263;SDS011;3673;52.480;13.348;2023-02-03T09:21:52;13.48;;;9.75;;
7263;SDS011;3673;52.480;13.348;2023-02-03T09:24:21;9.60;;;7.47;;
7263;SDS011;3673;52.480;13.348;2023-02-03T09:26:48;11.48;;;7.45;;
7263;SDS011;3673;52.480;13.348;2023-02-03T09:29:16;11.75;;;7.65;;
7263;SDS011;3673;52.480;13.348;2023-02-03T09:31:43;10.57;;;6.20;;
7263;SDS011;3673;52.480;13.348;2023-02-03T09:34:11;8.45;;;7.63;;
7263;SDS011;3673;52.480;13.348;2023-02-03T09:36:38;12.10;;;6.88;;
7263;SDS011;3673;52.480;13.348;2023-02-03T09:39:05;7.50;;;5.95;;
7263;SDS011;3673;52.480;13.348;2023-02-03T09:41:47;8.02;;;6.70;;
7263;SDS011;3673;52.480;13.348;2023-02-03T09:44:31;11.35;;;6.20;;
7263;SDS011;3673;52.480;13.348;2023-02-03T09:47:08;10.52;;;6.28;;
7263;SDS011;3673;52.480;13.348;2023-02-03T09:49:40;9.30;;;5.65;;
7263;SDS011;3673;52.480;13.348;2023-02-03T09:52:13;9.52;;;5.85;;
7263;SDS011;3673;52.480;13.348;2023-02-03T09:54:46;7.30;;;5.47;;
7263;SDS011;3673;52.480;13.348;2023-02-03T09:57:20;7.10;;;5.00;;
7263;SDS011;3673;52.480;13.348;2023-02-03T09:59:51;9.38;;;6.03;;
7263;SDS011;3673;52.480;13.348;2023-02-03T10:02:25;10.63;;;5.28;;
7263;SDS011;3673;52.480;13.348;2023-02-03T10:05:10;8.15;;;5.28;;
7263;SDS011;3673;52.480;13.348;2023-02-03T10:07:50;10.25;;;5.05;;
7263;SDS011;3673;52.480;13.348;2023-02-03T10:10:30;9.32;;;5.43;;
7263;SDS011;3673;52.480;13.348;2023-02-03T10:16:05;6.00;;;4.93;;
7263;SDS011;3673;52.480;13.348;2023-02-03T10:19:01;7.25;;;5.25;;
7263;SDS011;3673;52.480;13.348;2023-02-03T10:21:36;5.72;;;4.30;;
7263;SDS011;3673;52.480;13.348;2023-02-03T10:24:08;6.03;;;4.18;;
7263;SDS011;3673;52.480;13.348;2023-02-03T10:26:39;8.07;;;4.60;;
7263;SDS011;3673;52.480;13.348;2023-02-03T10:29:12;6.30;;;4.20;;
7263;SDS011;3673;52.480;13.348;2023-02-03T10:31:46;7.22;;;4.03;;
7263;SDS011;3673;52.480;13.348;2023-02-03T10:34:14;5.30;;;3.63;;
7263;SDS011;3673;52.480;13.348;2023-02-03T10:36:52;6.35;;;4.35;;
7263;SDS011;3673;52.480;13.348;2023-02-03T10:39:23;5.68;;;3.65;;
7263;SDS011;3673;52.480;13.348;2023-02-03T10:41:57;7.63;;;3.47;;
7263;SDS011;3673;52.480;13.348;2023-02-03T10:44:30;5.53;;;3.20;;
7263;SDS011;3673;52.480;13.348;2023-02-03T10:47:09;6.82;;;2.83;;
7263;SDS011;3673;52.480;13.348;2023-02-03T10:49:47;5.93;;;3.17;;
7263;SDS011;3673;52.480;13.348;2023-02-03T10:52:29;3.20;;;2.50;;
7263;SDS011;3673;52.480;13.348;2023-02-03T10:54:58;5.72;;;1.65;;
7263;SDS011;3673;52.480;13.348;2023-02-03T10:57:29;4.40;;;1.10;;
7263;SDS011;3673;52.480;13.348;2023-02-03T11:00:03;7.60;;;1.05;;
7263;SDS011;3673;52.480;13.348;2023-02-03T11:02:46;5.47;;;1.77;;
7263;SDS011;3673;52.480;13.348;2023-02-03T11:05:22;7.05;;;1.23;;
7263;SDS011;3673;52.480;13.348;2023-02-03T11:07:50;8.50;;;1.38;;
7263;SDS011;3673;52.480;13.348;2023-02-03T11:10:28;7.65;;;1.55;;
7263;SDS011;3673;52.480;13.348;2023-02-03T11:13:15;10.02;;;2.10;;
7263;SDS011;3673;52.480;13.348;2023-02-03T11:15:52;7.50;;;1.48;;
7263;SDS011;3673;52.480;13.348;2023-02-03T11:21:05;12.02;;;2.53;;
7263;SDS011;3673;52.480;13.348;2023-02-03T11:23:35;13.25;;;2.88;;
7263;SDS011;3673;52.480;13.348;2023-02-03T11:26:10;7.43;;;2.08;;
7263;SDS011;3673;52.480;13.348;2023-02-03T11:28:40;12.35;;;1.77;;
7263;SDS011;3673;52.480;13.348;2023-02-03T11:31:17;10.02;;;1.55;;
7263;SDS011;3673;52.480;13.348;2023-02-03T11:33:51;10.70;;;2.05;;
7263;SDS011;3673;52.480;13.348;2023-02-03T11:36:24;13.40;;;1.98;;
7263;SDS011;3673;52.480;13.348;2023-02-03T11:39:03;8.05;;;2.13;;
7263;SDS011;3673;52.480;13.348;2023-02-03T11:41:53;16.55;;;2.20;;
7263;SDS011;3673;52.480;13.348;2023-02-03T11:44:21;10.07;;;2.65;;
7263;SDS011;3673;52.480;13.348;2023-02-03T11:46:54;9.15;;;2.03;;
7263;SDS011;3673;52.480;13.348;2023-02-03T11:49:42;15.07;;;2.65;;
7263;SDS011;3673;52.480;13.348;2023-02-03T12:01:21;16.33;;;3.08;;
7263;SDS011;3673;52.480;13.348;2023-02-03T12:04:08;18.27;;;3.38;;
7263;SDS011;3673;52.480;13.348;2023-02-03T12:06:59;12.70;;;3.28;;
7263;SDS011;3673;52.480;13.348;2023-02-03T12:12:30;11.48;;;2.20;;
7263;SDS011;3673;52.480;13.348;2023-02-03T12:15:15;24.17;;;3.83;;
7263;SDS011;3673;52.480;13.348;2023-02-03T12:18:27;20.23;;;3.60;;
7263;SDS011;3673;52.480;13.348;2023-02-03T12:21:08;19.95;;;2.85;;
7263;SDS011;3673;52.480;13.348;2023-02-03T12:23:58;24.05;;;5.18;;
7263;SDS011;3673;52.480;13.348;2023-02-03T12:26:35;23.73;;;4.32;;
7263;SDS011;3673;52.480;13.348;2023-02-03T12:29:11;25.52;;;4.93;;
7263;SDS011;3673;52.480;13.348;2023-02-03T12:31:44;41.47;;;5.75;;
7263;SDS011;3673;52.480;13.348;2023-02-03T12:34:18;24.05;;;4.88;;
7263;SDS011;3673;52.480;13.348;2023-02-03T12:36:54;20.73;;;5.18;;
7263;SDS011;3673;52.480;13.348;2023-02-03T12:39:29;25.83;;;4.50;;
7263;SDS011;3673;52.480;13.348;2023-02-03T12:42:04;26.77;;;3.55;;
7263;SDS011;3673;52.480;13.348;2023-02-03T12:44:39;21.48;;;3.85;;
7263;SDS011;3673;52.480;13.348;2023-02-03T12:47:15;27.90;;;5.13;;
7263;SDS011;3673;52.480;13.348;2023-02-03T12:49:52;20.98;;;4.25;;
7263;SDS011;3673;52.480;13.348;2023-02-03T12:52:24;24.92;;;4.15;;
7263;SDS011;3673;52.480;13.348;2023-02-03T12:55:00;17.90;;;4.03;;
7263;SDS011;3673;52.480;13.348;2023-02-03T12:57:40;26.38;;;4.70;;
7263;SDS011;3673;52.480;13.348;2023-02-03T13:00:17;24.63;;;5.00;;
7263;SDS011;3673;52.480;13.348;2023-02-03T13:02:58;31.52;;;5.93;;
7263;SDS011;3673;52.480;13.348;2023-02-03T13:05:38;25.00;;;4.53;;
7263;SDS011;3673;52.480;13.348;2023-02-03T13:08:21;19.25;;;3.63;;
7263;SDS011;3673;52.480;13.348;2023-02-03T13:10:56;24.20;;;3.45;;
7263;SDS011;3673;52.480;13.348;2023-02-03T13:13:38;32.95;;;4.03;;
7263;SDS011;3673;52.480;13.348;2023-02-03T13:18:43;24.45;;;3.67;;
7263;SDS011;3673;52.480;13.348;2023-02-03T13:21:15;18.20;;;3.55;;
7263;SDS011;3673;52.480;13.348;2023-02-03T13:23:41;12.52;;;2.78;;
7263;SDS011;3673;52.480;13.348;2023-02-03T13:26:16;14.70;;;2.58;;
7263;SDS011;3673;52.480;13.348;2023-02-03T13:29:31;15.60;;;2.88;;
7263;SDS011;3673;52.480;13.348;2023-02-03T13:35:26;16.65;;;2.63;;
7263;SDS011;3673;52.480;13.348;2023-02-03T13:38:19;15.43;;;2.50;;
7263;SDS011;3673;52.480;13.348;2023-02-03T13:41:08;22.23;;;3.38;;
7263;SDS011;3673;52.480;13.348;2023-02-03T13:43:47;17.52;;;2.92;;
7263;SDS011;3673;52.480;13.348;2023-02-03T13:46:18;18.75;;;3.10;;
7263;SDS011;3673;52.480;13.348;2023-02-03T13:48:49;14.02;;;2.65;;
7263;SDS011;3673;52.480;13.348;2023-02-03T13:51:20;22.95;;;3.50;;
7263;SDS011;3673;52.480;13.348;2023-02-03T13:53:57;16.55;;;3.80;;
7263;SDS011;3673;52.480;13.348;2023-02-03T13:56:29;16.95;;;4.30;;
7263;SDS011;3673;52.480;13.348;2023-02-03T13:58:58;18.88;;;3.75;;
7263;SDS011;3673;52.480;13.348;2023-02-03T14:01:29;19.65;;;3.50;;
7263;SDS011;3673;52.480;13.348;2023-02-03T14:04:03;14.50;;;3.35;;
7263;SDS011;3673;52.480;13.348;2023-02-03T14:09:38;27.65;;;3.60;;
7263;SDS011;3673;52.480;13.348;2023-02-03T14:12:31;21.42;;;3.22;;
7263;SDS011;3673;52.480;13.348;2023-02-03T14:15:02;18.00;;;2.47;;
7263;SDS011;3673;52.480;13.348;2023-02-03T14:17:57;18.30;;;2.88;;
7263;SDS011;3673;52.480;13.348;2023-02-03T14:20:39;20.75;;;4.28;;
7263;SDS011;3673;52.480;13.348;2023-02-03T14:23:42;27.23;;;4.15;;
7263;SDS011;3673;52.480;13.348;2023-02-03T14:26:27;30.85;;;4.15;;
7263;SDS011;3673;52.480;13.348;2023-02-03T14:29:03;19.38;;;4.10;;
7263;SDS011;3673;52.480;13.348;2023-02-03T14:31:31;21.05;;;4.25;;
7263;SDS011;3673;52.480;13.348;2023-02-03T14:34:24;20.52;;;4.15;;
7263;SDS011;3673;52.480;13.348;2023-02-03T14:37:09;30.00;;;3.75;;
7263;SDS011;3673;52.480;13.348;2023-02-03T14:39:57;21.98;;;5.40;;
7263;SDS011;3673;52.480;13.348;2023-02-03T14:42:56;29.98;;;4.35;;
7263;SDS011;3673;52.480;13.348;2023-02-03T14:45:45;22.33;;;3.47;;
7263;SDS011;3673;52.480;13.348;2023-02-03T14:48:57;30.88;;;5.38;;
7263;SDS011;3673;52.480;13.348;2023-02-03T14:51:50;30.02;;;5.43;;
7263;SDS011;3673;52.480;13.348;2023-02-03T14:54:35;33.88;;;4.88;;
7263;SDS011;3673;52.480;13.348;2023-02-03T14:57:25;31.67;;;4.97;;
7263;SDS011;3673;52.480;13.348;2023-02-03T15:00:05;27.77;;;4.85;;
7263;SDS011;3673;52.480;13.348;2023-02-03T15:03:13;31.20;;;4.72;;
7263;SDS011;3673;52.480;13.348;2023-02-03T15:05:55;34.35;;;4.70;;
7263;SDS011;3673;52.480;13.348;2023-02-03T15:11:24;24.92;;;3.90;;
7263;SDS011;3673;52.480;13.348;2023-02-03T15:13:55;26.08;;;4.50;;
7263;SDS011;3673;52.480;13.348;2023-02-03T15:16:39;26.25;;;4.18;;
7263;SDS011;3673;52.480;13.348;2023-02-03T15:19:14;20.50;;;4.22;;
7263;SDS011;3673;52.480;13.348;2023-02-03T15:21:44;36.15;;;5.68;;
7263;SDS011;3673;52.480;13.348;2023-02-03T15:24:12;20.45;;;4.05;;
7263;SDS011;3673;52.480;13.348;2023-02-03T15:26:43;22.02;;;4.15;;
7263;SDS011;3673;52.480;13.348;2023-02-03T15:29:17;28.33;;;4.25;;
7263;SDS011;3673;52.480;13.348;2023-02-03T15:34:22;20.35;;;4.43;;
7263;SDS011;3673;52.480;13.348;2023-02-03T15:36:54;19.20;;;4.82;;
7263;SDS011;3673;52.480;13.348;2023-02-03T15:39:30;24.92;;;4.35;;
7263;SDS011;3673;52.480;13.348;2023-02-03T15:42:07;25.40;;;5.80;;
7263;SDS011;3673;52.480;13.348;2023-02-03T15:44:42;29.08;;;5.15;;
7263;SDS011;3673;52.480;13.348;2023-02-03T15:47:18;23.45;;;4.53;;
7263;SDS011;3673;52.480;13.348;2023-02-03T15:49:56;30.33;;;4.93;;
7263;SDS011;3673;52.480;13.348;2023-02-03T15:52:32;22.60;;;6.20;;